createdAt,value
2023-02-11T00:01:22.589Z,49.63
2023-02-11T00:03:49.927Z,56.72
2023-02-11T00:06:17.794Z,51.30
2023-02-11T00:08:44.956Z,52.17
2023-02-11T00:11:18.932Z,44.65
2023-02-11T00:13:46.468Z,47.95
2023-02-11T00:16:20.142Z,49.78
2023-02-11T00:18:47.890Z,49.65
2023-02-11T00:21:25.313Z,46.25
2023-02-11T00:23:53.329Z,45.63
2023-02-11T00:26:34.745Z,50.92
2023-02-11T00:29:05.240Z,49.40
2023-02-11T00:31:33.291Z,50.17
2023-02-11T00:34:00.418Z,52.67
2023-02-11T00:36:31.349Z,52.05
2023-02-11T00:39:01.930Z,50.42
2023-02-11T00:41:29.947Z,44.92
2023-02-11T00:43:57.438Z,49.63
2023-02-11T00:46:24.892Z,50.13
2023-02-11T00:48:55.049Z,44.75
2023-02-11T00:51:25.037Z,50.70
2023-02-11T00:53:52.142Z,51.70
2023-02-11T00:56:19.570Z,44.50
2023-02-11T00:58:46.736Z,46.92
2023-02-11T01:01:14.202Z,50.30
2023-02-11T01:03:43.926Z,45.30
2023-02-11T01:06:11.812Z,48.95
2023-02-11T01:08:40.189Z,55.38
2023-02-11T01:11:14.097Z,47.13
2023-02-11T01:13:41.327Z,51.80
2023-02-11T01:16:10.850Z,41.80
2023-02-11T01:18:38.330Z,50.90
2023-02-11T01:21:05.805Z,43.08
2023-02-11T01:23:32.909Z,48.55
2023-02-11T01:26:02.450Z,49.53
2023-02-11T01:28:30.982Z,43.30
2023-02-11T01:31:01.944Z,40.80
2023-02-11T01:33:29.480Z,41.28
2023-02-11T01:36:01.032Z,42.00
2023-02-11T01:38:28.149Z,38.30
2023-02-11T01:41:08.915Z,43.70
2023-02-11T01:43:45.178Z,44.05
2023-02-11T01:46:31.126Z,46.40
2023-02-11T01:49:18.783Z,43.58
2023-02-11T01:51:54.797Z,40.25
2023-02-11T01:54:45.237Z,41.38
2023-02-11T01:57:25.396Z,45.60
2023-02-11T02:00:36.782Z,44.67
2023-02-11T02:03:09.879Z,40.97
2023-02-11T02:06:11.083Z,44.35
2023-02-11T02:09:18.236Z,46.58
2023-02-11T02:11:45.422Z,44.80
2023-02-11T02:14:12.488Z,42.53
2023-02-11T02:16:39.738Z,46.70
2023-02-11T02:20:11.349Z,46.05
2023-02-11T02:23:20.917Z,41.95
2023-02-11T02:26:38.577Z,46.08
2023-02-11T02:29:28.250Z,42.70
2023-02-11T02:32:16.783Z,47.40
2023-02-11T02:35:40.010Z,42.20
2023-02-11T02:38:12.877Z,57.10
2023-02-11T02:40:57.977Z,44.45
2023-02-11T02:43:27.857Z,47.92
2023-02-11T02:45:55.024Z,39.00
2023-02-11T02:48:35.763Z,43.53
2023-02-11T02:51:34.748Z,45.67
2023-02-11T02:54:29.584Z,46.33
2023-02-11T02:57:17.665Z,44.63
2023-02-11T02:59:47.378Z,42.90
2023-02-11T03:02:23.423Z,46.45
2023-02-11T03:05:10.780Z,53.60
2023-02-11T03:07:44.411Z,48.40
2023-02-11T03:10:36.384Z,52.28
2023-02-11T03:13:05.461Z,51.00
2023-02-11T03:15:38.782Z,47.08
2023-02-11T03:18:09.239Z,50.20
2023-02-11T03:20:39.553Z,50.75
2023-02-11T03:23:24.169Z,53.25
2023-02-11T03:26:03.079Z,50.80
2023-02-11T03:28:41.358Z,52.17
2023-02-11T03:31:37.589Z,57.90
2023-02-11T03:34:15.848Z,49.03
2023-02-11T03:37:25.616Z,52.50
2023-02-11T03:40:12.205Z,52.70
2023-02-11T03:43:47.419Z,53.53
2023-02-11T03:46:18.976Z,49.15
2023-02-11T03:48:52.666Z,51.33
2023-02-11T03:51:24.255Z,49.63
2023-02-11T03:53:55.746Z,48.83
2023-02-11T03:56:29.182Z,47.10
2023-02-11T03:58:56.596Z,55.38
2023-02-11T04:01:23.852Z,50.42
2023-02-11T04:03:51.012Z,52.22
2023-02-11T04:06:18.493Z,51.80
2023-02-11T04:08:45.686Z,54.03
2023-02-11T04:11:14.980Z,55.92
2023-02-11T04:13:44.781Z,54.17
2023-02-11T04:16:11.967Z,52.72
2023-02-11T04:18:39.078Z,48.78
2023-02-11T04:21:06.345Z,59.05
2023-02-11T04:23:33.505Z,52.63
2023-02-11T04:26:00.590Z,48.88
2023-02-11T04:28:31.587Z,56.38
2023-02-11T04:30:58.939Z,62.05
2023-02-11T04:33:26.191Z,52.47
2023-02-11T04:35:53.289Z,56.90
2023-02-11T04:38:20.396Z,57.28
2023-02-11T04:40:50.908Z,56.53
2023-02-11T04:43:18.399Z,50.75
2023-02-11T04:45:45.477Z,56.08
2023-02-11T04:48:12.585Z,55.53
2023-02-11T04:50:39.760Z,54.65
2023-02-11T04:53:06.841Z,54.88
2023-02-11T04:55:34.000Z,51.60
2023-02-11T04:58:01.125Z,52.55
2023-02-11T05:00:28.264Z,57.22
2023-02-11T05:02:55.360Z,55.70
2023-02-11T05:05:22.592Z,58.83
2023-02-11T05:07:49.697Z,52.10
2023-02-11T05:10:17.067Z,61.25
2023-02-11T05:12:44.210Z,55.67
2023-02-11T05:15:13.746Z,56.92
2023-02-11T05:17:40.902Z,52.67
2023-02-11T05:20:08.812Z,55.88
2023-02-11T05:22:35.850Z,55.45
2023-02-11T05:25:03.014Z,55.47
2023-02-11T05:27:30.152Z,55.35
2023-02-11T05:29:57.434Z,55.08
2023-02-11T05:32:27.750Z,50.47
2023-02-11T05:34:54.929Z,59.30
2023-02-11T05:37:22.080Z,57.90
2023-02-11T05:39:49.280Z,58.92
2023-02-11T05:42:16.401Z,62.63
2023-02-11T05:44:45.763Z,59.28
2023-02-11T05:47:12.790Z,59.25
2023-02-11T05:49:39.908Z,55.30
2023-02-11T05:52:06.986Z,56.10
2023-02-11T05:54:34.088Z,61.42
2023-02-11T05:57:01.226Z,52.05
2023-02-11T05:59:28.334Z,58.03
2023-02-11T06:01:55.924Z,57.15
2023-02-11T06:04:23.132Z,58.47
2023-02-11T06:06:50.383Z,54.85
2023-02-11T06:09:19.871Z,59.63
2023-02-11T06:11:49.455Z,58.65
2023-02-11T06:14:16.744Z,58.60
2023-02-11T06:16:43.951Z,55.53
2023-02-11T06:19:12.460Z,54.95
2023-02-11T06:21:44.218Z,57.08
2023-02-11T06:24:12.802Z,58.85
2023-02-11T06:26:42.704Z,57.13
2023-02-11T06:29:10.415Z,59.03
2023-02-11T06:31:39.357Z,60.05
2023-02-11T06:34:07.923Z,54.78
2023-02-11T06:36:35.696Z,69.38
2023-02-11T06:39:05.550Z,61.42
2023-02-11T06:41:33.052Z,60.22
2023-02-11T06:44:00.811Z,62.63
2023-02-11T06:46:28.065Z,60.50
2023-02-11T06:48:58.116Z,65.72
2023-02-11T06:51:28.628Z,58.58
2023-02-11T06:53:55.765Z,58.60
2023-02-11T06:56:27.733Z,59.08
2023-02-11T06:58:56.672Z,68.28
2023-02-11T07:01:25.793Z,55.05
2023-02-11T07:03:53.475Z,53.17
2023-02-11T07:06:25.748Z,57.17
2023-02-11T07:11:24.912Z,51.72
2023-02-11T07:13:55.257Z,57.45
2023-02-11T07:16:25.072Z,49.00
2023-02-11T07:18:53.224Z,51.00
2023-02-11T07:21:24.418Z,51.28
2023-02-11T07:23:51.935Z,46.10
2023-02-11T07:26:23.353Z,52.92
2023-02-11T07:28:51.659Z,51.83
2023-02-11T07:31:28.311Z,42.55
2023-02-11T07:34:00.017Z,50.75
2023-02-11T07:36:29.675Z,34.72
2023-02-11T07:38:56.968Z,45.63
2023-02-11T07:41:25.680Z,46.03
2023-02-11T07:43:53.496Z,41.60
2023-02-11T07:46:28.374Z,37.17
2023-02-11T07:48:56.503Z,39.53
2023-02-11T07:51:29.921Z,43.03
2023-02-11T07:54:00.051Z,37.90
2023-02-11T07:56:28.719Z,37.65
2023-02-11T07:58:59.795Z,41.63
2023-02-11T08:01:28.760Z,38.85
2023-02-11T08:03:58.419Z,37.67
2023-02-11T08:06:29.788Z,39.45
2023-02-11T08:08:57.286Z,40.47
2023-02-11T08:11:28.236Z,37.25
2023-02-11T08:13:56.761Z,43.25
2023-02-11T08:16:32.167Z,36.90
2023-02-11T08:19:04.415Z,37.50
2023-02-11T08:21:31.581Z,38.38
2023-02-11T08:23:59.190Z,39.65
2023-02-11T08:26:29.795Z,38.55
2023-02-11T08:28:58.932Z,42.20
2023-02-11T08:31:41.680Z,41.08
2023-02-11T08:34:11.531Z,41.60
2023-02-11T08:36:42.833Z,43.60
2023-02-11T08:39:20.490Z,47.42
2023-02-11T08:41:54.007Z,48.75
2023-02-11T08:44:24.741Z,48.63
2023-02-11T08:46:52.412Z,53.30
2023-02-11T08:49:20.441Z,49.40
2023-02-11T08:51:48.403Z,47.83
2023-02-11T08:54:16.326Z,49.13
2023-02-11T08:56:43.744Z,45.42
2023-02-11T08:59:15.675Z,45.65
2023-02-11T09:01:44.428Z,50.25
2023-02-11T09:04:11.721Z,49.20
2023-02-11T09:06:38.865Z,50.55
2023-02-11T09:09:06.508Z,49.97
2023-02-11T09:11:37.427Z,52.28
2023-02-11T09:14:05.181Z,47.38
2023-02-11T09:16:36.615Z,47.78
2023-02-11T09:19:05.779Z,48.00
2023-02-11T09:21:33.300Z,54.67
2023-02-11T09:24:00.494Z,51.05
2023-02-11T09:26:31.930Z,48.50
2023-02-11T09:29:04.913Z,56.25
2023-02-11T09:31:34.162Z,51.13
2023-02-11T09:34:06.640Z,49.00
2023-02-11T09:36:38.650Z,47.42
2023-02-11T09:39:11.479Z,47.10
2023-02-11T09:42:15.705Z,47.35
2023-02-11T09:44:46.377Z,53.92
2023-02-11T09:47:34.247Z,50.05
2023-02-11T09:50:07.606Z,54.65
2023-02-11T09:52:56.021Z,44.67
2023-02-11T09:55:37.958Z,52.05
2023-02-11T09:58:15.502Z,45.40
2023-02-11T10:01:27.882Z,45.15
2023-02-11T10:04:02.935Z,43.78
2023-02-11T10:06:49.767Z,42.03
2023-02-11T10:09:48.224Z,41.58
2023-02-11T10:12:42.375Z,39.80
2023-02-11T10:15:52.003Z,42.85
2023-02-11T10:18:39.301Z,39.08
2023-02-11T10:21:47.917Z,40.92
2023-02-11T10:24:20.048Z,36.08
2023-02-11T10:26:47.605Z,39.70
2023-02-11T10:29:41.069Z,38.92
2023-02-11T10:32:27.796Z,39.28
2023-02-11T10:35:01.125Z,38.50
2023-02-11T10:37:28.488Z,38.97
2023-02-11T10:39:55.577Z,41.90
2023-02-11T10:42:22.706Z,40.17
2023-02-11T10:45:01.734Z,39.83
2023-02-11T10:47:37.612Z,38.65
2023-02-11T10:50:22.904Z,41.90
2023-02-11T10:52:50.198Z,40.05
2023-02-11T10:55:23.432Z,41.45
2023-02-11T10:57:58.698Z,42.03
2023-02-11T11:00:42.382Z,39.88
2023-02-11T11:03:25.707Z,39.72
2023-02-11T11:06:02.845Z,41.55
2023-02-11T11:08:46.697Z,40.60
2023-02-11T11:11:19.289Z,37.47
2023-02-11T11:14:03.843Z,38.88
2023-02-11T11:16:37.198Z,41.50
2023-02-11T11:19:07.288Z,35.08
2023-02-11T11:21:51.066Z,40.55
2023-02-11T11:24:55.382Z,37.78
2023-02-11T11:27:25.945Z,35.15
2023-02-11T11:29:56.464Z,37.50
2023-02-11T11:32:33.801Z,34.55
2023-02-11T11:35:06.392Z,38.05
2023-02-11T11:37:37.233Z,32.33
2023-02-11T11:40:25.618Z,33.97
2023-02-11T11:43:23.029Z,32.35
2023-02-11T11:45:57.800Z,29.98
2023-02-11T11:48:33.660Z,32.75
2023-02-11T11:51:06.185Z,29.15
2023-02-11T11:54:00.198Z,32.78
2023-02-11T11:56:34.318Z,27.42
2023-02-11T11:59:11.156Z,29.90
2023-02-11T12:02:20.499Z,25.55
2023-02-11T12:04:59.634Z,26.23
2023-02-11T12:07:45.500Z,28.02
2023-02-11T12:10:58.978Z,26.45
2023-02-11T12:13:39.556Z,29.95
2023-02-11T12:17:06.451Z,28.90
2023-02-11T12:19:52.479Z,25.77
2023-02-11T12:23:14.113Z,31.17
2023-02-11T12:26:00.870Z,27.17
2023-02-11T12:28:55.008Z,29.38
2023-02-11T12:31:50.709Z,26.55
2023-02-11T12:34:46.127Z,25.23
2023-02-11T12:37:41.442Z,23.60
2023-02-11T12:40:35.989Z,21.00
2023-02-11T12:43:17.380Z,22.02
2023-02-11T12:46:12.814Z,21.48
2023-02-11T12:49:45.667Z,20.42
2023-02-11T12:52:31.082Z,17.08
2023-02-11T12:55:11.804Z,17.88
2023-02-11T12:57:41.874Z,18.73
2023-02-11T13:00:38.004Z,17.08
2023-02-11T13:03:19.215Z,15.25
2023-02-11T13:05:58.753Z,20.40
2023-02-11T13:08:43.471Z,15.50
2023-02-11T13:11:37.937Z,14.27
2023-02-11T13:14:17.277Z,14.35
2023-02-11T13:16:51.004Z,15.07
2023-02-11T13:19:34.537Z,17.50
2023-02-11T13:22:20.132Z,16.92
2023-02-11T13:24:59.844Z,17.42
2023-02-11T13:27:33.262Z,15.13
2023-02-11T13:30:39.455Z,15.52
2023-02-11T13:33:20.884Z,15.52
2023-02-11T13:35:57.187Z,15.60
2023-02-11T13:38:33.566Z,15.70
2023-02-11T13:41:25.938Z,18.25
2023-02-11T13:44:11.416Z,15.60
2023-02-11T13:47:01.571Z,14.43
2023-02-11T13:49:50.774Z,15.57
2023-02-11T13:52:37.805Z,15.65
2023-02-11T13:55:24.600Z,16.65
2023-02-11T13:58:14.911Z,13.48
2023-02-11T14:00:50.476Z,16.98
2023-02-11T14:03:49.611Z,16.95
2023-02-11T14:07:05.544Z,17.75
2023-02-11T14:09:40.282Z,18.23
2023-02-11T14:12:31.388Z,17.00
2023-02-11T14:15:21.281Z,16.70
2023-02-11T14:17:52.546Z,17.20
2023-02-11T14:20:45.581Z,17.13
2023-02-11T14:23:27.291Z,18.45
2023-02-11T14:26:19.907Z,17.75
2023-02-11T14:29:17.607Z,21.83
2023-02-11T14:31:55.073Z,17.67
2023-02-11T14:34:31.011Z,22.20
2023-02-11T14:37:20.867Z,17.65
2023-02-11T14:39:58.461Z,17.77
2023-02-11T14:42:31.147Z,15.93
2023-02-11T14:45:07.733Z,16.50
2023-02-11T14:47:45.309Z,18.50
2023-02-11T14:50:26.371Z,17.25
2023-02-11T14:52:54.877Z,17.08
2023-02-11T14:55:38.125Z,17.80
2023-02-11T14:58:17.110Z,18.95
2023-02-11T15:01:09.309Z,23.27
2023-02-11T15:06:19.166Z,23.95
2023-02-11T15:09:03.624Z,22.92
2023-02-11T15:11:39.651Z,25.25
2023-02-11T15:14:21.670Z,23.60
2023-02-11T15:16:50.891Z,21.77
2023-02-11T15:19:41.271Z,20.80
2023-02-11T15:22:33.123Z,20.17
2023-02-11T15:25:16.616Z,21.55
2023-02-11T15:27:48.226Z,22.13
2023-02-11T15:30:25.013Z,25.75
2023-02-11T15:32:59.955Z,22.92
2023-02-11T15:35:35.062Z,24.33
2023-02-11T15:38:02.700Z,28.75
2023-02-11T15:40:33.771Z,32.70
2023-02-11T15:43:06.005Z,24.17
2023-02-11T15:48:26.999Z,27.02
2023-02-11T15:51:01.473Z,25.10
2023-02-11T15:53:43.113Z,22.38
2023-02-11T15:56:25.684Z,22.48
2023-02-11T15:58:56.154Z,21.95
2023-02-11T16:01:38.324Z,22.90
2023-02-11T16:04:06.339Z,17.27
2023-02-11T16:12:25.109Z,21.88
2023-02-11T16:14:59.544Z,25.20
2023-02-11T16:17:29.757Z,22.67
2023-02-11T16:19:57.465Z,26.92
2023-02-11T16:22:38.190Z,24.27
2023-02-11T16:25:06.315Z,24.55
2023-02-11T16:27:41.555Z,21.80
2023-02-11T16:30:35.011Z,23.15
2023-02-11T16:33:05.023Z,29.13
2023-02-11T16:35:32.851Z,28.40
2023-02-11T16:38:00.428Z,23.60
2023-02-11T16:40:30.756Z,23.30
2023-02-11T16:42:59.377Z,24.42
2023-02-11T16:45:27.493Z,23.27
2023-02-11T16:47:55.513Z,23.73
2023-02-11T16:50:27.889Z,24.70
2023-02-11T16:52:55.582Z,26.17
2023-02-11T16:55:26.330Z,25.55
2023-02-11T16:57:54.670Z,21.77
2023-02-11T17:00:23.583Z,29.55
2023-02-11T17:02:54.135Z,25.48
2023-02-11T17:05:25.485Z,22.40
2023-02-11T17:07:57.926Z,20.83
2023-02-11T17:10:27.457Z,20.35
2023-02-11T17:12:57.411Z,21.02
2023-02-11T17:15:24.809Z,20.13
2023-02-11T17:17:52.348Z,23.90
2023-02-11T17:20:20.842Z,27.02
2023-02-11T17:22:51.206Z,21.08
2023-02-11T17:25:18.962Z,26.33
2023-02-11T17:27:51.213Z,31.42
2023-02-11T17:30:23.302Z,26.27
2023-02-11T17:32:54.052Z,28.52
2023-02-11T17:35:24.068Z,30.77
2023-02-11T17:37:51.914Z,25.42
2023-02-11T17:40:19.784Z,22.95
2023-02-11T17:48:28.190Z,22.00
2023-02-11T17:50:58.846Z,21.90
2023-02-11T17:53:26.608Z,23.05
2023-02-11T17:55:56.777Z,22.00
2023-02-11T17:58:24.354Z,19.58
2023-02-11T18:00:52.203Z,22.15
2023-02-11T18:03:22.179Z,21.50
2023-02-11T18:05:51.309Z,20.15
2023-02-11T18:08:19.282Z,20.75
2023-02-11T18:10:46.600Z,20.17
2023-02-11T18:13:16.910Z,20.38
2023-02-11T18:15:56.067Z,23.65
2023-02-11T18:18:23.623Z,23.27
2023-02-11T18:21:08.792Z,23.10
2023-02-11T18:23:45.276Z,23.25
2023-02-11T18:26:19.242Z,25.40
2023-02-11T18:28:48.137Z,24.10
2023-02-11T18:31:22.182Z,27.30
2023-02-11T18:33:49.847Z,24.63
2023-02-11T18:36:17.494Z,24.50
2023-02-11T18:38:45.175Z,24.60
2023-02-11T18:41:14.846Z,25.10
2023-02-11T18:43:43.373Z,29.95
2023-02-11T18:46:14.748Z,25.77
2023-02-11T18:48:45.300Z,23.23
2023-02-11T18:51:18.624Z,25.17
2023-02-11T18:53:46.931Z,29.38
2023-02-11T18:56:20.929Z,23.50
2023-02-11T18:58:49.972Z,26.60
2023-02-11T19:01:29.825Z,29.50
2023-02-11T19:03:59.983Z,31.98
2023-02-11T19:06:30.519Z,27.88
2023-02-11T19:09:02.685Z,32.92
2023-02-11T19:11:49.160Z,29.58
2023-02-11T19:14:29.924Z,24.25
2023-02-11T19:17:01.731Z,29.35
2023-02-11T19:19:33.212Z,35.55
2023-02-11T19:22:02.362Z,30.55
2023-02-11T19:24:30.825Z,26.45
2023-02-11T19:27:01.474Z,27.08
2023-02-11T19:29:32.412Z,30.20
2023-02-11T19:32:00.510Z,26.38
2023-02-11T19:34:28.291Z,25.73
2023-02-11T19:36:56.853Z,29.63
2023-02-11T19:39:25.134Z,29.08
2023-02-11T19:41:53.644Z,22.33
2023-02-11T19:44:21.172Z,23.25
2023-02-11T19:46:50.786Z,25.30
2023-02-11T19:49:23.868Z,29.17
2023-02-11T19:51:52.981Z,26.17
2023-02-11T19:54:21.656Z,23.92
2023-02-11T19:56:52.965Z,24.70
2023-02-11T19:59:21.702Z,27.52
2023-02-11T20:01:49.894Z,25.50
2023-02-11T20:04:23.073Z,25.17
2023-02-11T20:06:51.070Z,26.83
2023-02-11T20:09:21.072Z,23.23
2023-02-11T20:14:34.255Z,21.70
2023-02-11T20:17:04.048Z,20.90
2023-02-11T20:19:31.482Z,21.08
2023-02-11T20:22:01.400Z,18.83
2023-02-11T20:24:30.031Z,20.58
2023-02-11T20:27:04.845Z,23.38
2023-02-11T20:29:45.996Z,29.50
2023-02-11T20:32:15.158Z,27.98
2023-02-11T20:34:42.938Z,25.65
2023-02-11T20:37:10.875Z,28.67
2023-02-11T20:39:41.961Z,32.53
2023-02-11T20:42:11.844Z,36.67
2023-02-11T20:44:43.195Z,31.67
2023-02-11T20:47:11.996Z,42.47
2023-02-11T20:49:39.740Z,33.70
2023-02-11T20:52:08.383Z,27.75
2023-02-11T20:54:41.490Z,27.25
2023-02-11T20:57:16.766Z,24.17
2023-02-11T20:59:48.074Z,23.55
2023-02-11T21:02:19.169Z,26.00
2023-02-11T21:04:49.989Z,29.65
2023-02-11T21:07:25.675Z,33.08
2023-02-11T21:10:01.841Z,28.00
2023-02-11T21:12:32.412Z,26.60
2023-02-11T21:15:08.041Z,22.80
2023-02-11T21:17:38.229Z,25.58
2023-02-11T21:20:09.089Z,26.35
2023-02-11T21:22:36.825Z,23.98
2023-02-11T21:25:09.184Z,29.27
2023-02-11T21:30:32.291Z,22.65
2023-02-11T21:33:02.537Z,30.75
2023-02-11T21:35:41.802Z,22.38
2023-02-11T21:38:24.284Z,22.45
2023-02-11T21:40:52.734Z,19.52
2023-02-11T21:43:21.387Z,22.23
2023-02-11T21:46:01.125Z,20.73
2023-02-11T21:48:41.104Z,26.00
2023-02-11T21:54:26.020Z,50.28
2023-02-11T21:57:26.575Z,46.17
2023-02-11T22:00:35.484Z,37.38
2023-02-11T22:03:49.627Z,27.05
2023-02-11T22:06:34.617Z,26.50
2023-02-11T22:09:24.268Z,22.88
2023-02-11T22:12:00.478Z,27.00
2023-02-11T22:14:46.900Z,24.77
2023-02-11T22:23:05.332Z,19.13
2023-02-11T22:25:46.005Z,20.52
2023-02-11T22:28:16.689Z,17.90
2023-02-11T22:30:44.548Z,21.50
2023-02-11T22:33:22.018Z,25.02
2023-02-11T22:35:55.839Z,23.52
2023-02-11T22:38:34.689Z,22.15
2023-02-11T22:41:16.353Z,20.27
2023-02-11T22:43:44.753Z,21.83
2023-02-11T22:46:16.800Z,18.73
2023-02-11T22:48:48.182Z,19.30
2023-02-11T22:51:28.541Z,19.42
2023-02-11T22:54:05.752Z,18.52
2023-02-11T22:56:36.483Z,19.17
2023-02-11T22:59:07.408Z,19.88
2023-02-11T23:01:35.894Z,22.02
2023-02-11T23:04:07.679Z,16.38
2023-02-11T23:06:37.795Z,18.55
2023-02-11T23:09:08.030Z,19.75
2023-02-11T23:11:36.630Z,26.13
2023-02-11T23:14:04.673Z,27.63
2023-02-11T23:16:34.521Z,38.60
2023-02-11T23:19:07.442Z,43.13
2023-02-11T23:21:48.105Z,54.47
2023-02-11T23:24:18.826Z,57.03
2023-02-11T23:26:51.425Z,56.00
2023-02-11T23:29:19.376Z,61.22
2023-02-11T23:31:47.341Z,68.47
2023-02-11T23:34:17.398Z,67.10
2023-02-11T23:36:46.312Z,59.28
2023-02-11T23:39:16.010Z,75.00
2023-02-11T23:41:44.012Z,56.58
2023-02-11T23:44:11.954Z,61.38
2023-02-11T23:46:39.768Z,61.75
2023-02-11T23:49:07.833Z,53.47
2023-02-11T23:51:35.220Z,54.08
2023-02-11T23:54:03.608Z,42.25
2023-02-11T23:56:31.119Z,42.70
2023-02-11T23:58:59.644Z,29.85
